CST,Max TemperatureF,Mean TemperatureF,Min TemperatureF,Max Dew PointF,MeanDew PointF,Min DewpointF,Max Humidity, Mean Humidity, Min Humidity, Max Sea Level PressureIn, Mean Sea Level PressureIn, Min Sea Level PressureIn, Max VisibilityMiles, Mean VisibilityMiles, Min VisibilityMiles, Max Wind SpeedMPH, Mean Wind SpeedMPH, Max Gust SpeedMPH,PrecipitationIn, CloudCover, Events, WindDirDegrees
2012-12-1,83,77,71,75,72,71,100,82,62,30.10,30.04,30.00,12,8,4,9,4,,0.00,5,Fog-Rain,25
2012-12-2,84,76,69,74,72,70,100,84,61,30.10,30.04,29.98,15,7,0,10,5,,0.12,3,Fog,352
2012-12-3,81,76,72,75,73,71,100,85,67,30.09,30.03,29.98,12,7,1,10,6,,0.47,6,Rain,34
2012-12-4,83,76,70,74,72,70,100,83,58,30.08,30.03,30.00,12,8,3,10,3,,0.08,6,Fog-Rain,49
2012-12-5,81,75,69,75,71,69,100,84,62,30.09,30.02,29.96,12,8,6,8,3,,0.04,4,Rain,43
2012-12-6,84,76,67,72,70,66,100,82,58,30.01,29.94,29.88,16,8,6,6,3,,0.00,3,,281
2012-12-7,84,75,66,72,69,66,100,78,52,29.96,29.90,29.86,12,8,0,108,8,,0.00,2,Fog,114
2012-12-8,84,76,69,74,70,68,100,76,54,29.97,29.91,29.86,16,8,6,7,2,,0.00,3,,126
2012-12-9,84,76,69,73,71,68,100,77,57,30.01,29.94,29.88,16,9,6,8,4,,0.00,2,,84
2012-12-10,86,77,68,77,73,68,100,83,65,29.96,29.88,29.82,16,8,6,9,2,,0.00,3,,139
2012-12-11,86,80,75,81,77,73,100,91,70,29.95,29.89,29.83,12,6,0,8,3,,0.12,5,Fog-Rain,21
2012-12-12,85,80,75,78,76,73,100,84,72,30.05,29.99,29.93,12,8,6,10,3,,0.04,5,Rain-Thunderstorm,68
2012-12-13,86,79,72,75,73,72,100,85,60,30.11,30.05,30.00,12,6,0,10,5,,0.28,3,Fog-Rain,7
2012-12-14,81,76,70,77,74,70,100,92,77,30.09,30.03,29.97,12,7,2,9,4,,0.16,5,Rain,336
2012-12-15,82,77,72,75,73,71,98,82,66,30.03,29.97,29.91,12,7,2,10,7,,0.79,5,Rain,70
2012-12-16,82,75,68,73,71,68,96,80,60,29.98,29.91,29.85,15,9,6,8,2,,0.00,2,,76
2012-12-17,86,78,70,76,74,70,94,80,69,29.91,29.86,29.80,12,8,6,9,3,,0.00,4,,135
2012-12-18,86,77,68,77,74,68,100,86,59,29.98,29.92,29.87,16,6,0,8,3,,0.00,3,Fog,32
2012-12-19,85,79,73,77,74,70,96,81,58,30.00,29.94,29.89,12,8,6,8,3,,0.12,4,Rain,126
2012-12-20,84,79,74,75,73,72,94,78,60,30.04,29.96,29.91,12,8,6,9,5,,0.03,2,Rain,84
2012-12-21,84,76,69,73,71,67,100,84,56,30.14,30.04,29.59,12,7,0,14,5,25,0.12,4,Fog-Rain,352
2012-12-22,80,72,65,67,64,61,88,68,49,30.21,30.14,30.09,16,8,6,15,11,,0.00,3,,15
2012-12-23,81,72,62,68,64,63,100,72,45,30.16,30.08,30.02,16,8,6,9,5,,0.00,2,,15
2012-12-24,82,72,63,68,65,63,94,74,46,30.03,29.97,29.90,16,9,6,10,3,,0.00,2,,89
2012-12-25,83,76,69,72,69,66,88,71,55,29.91,29.85,29.77,16,9,6,9,5,,0.00,3,,136
2012-12-26,86,78,71,77,74,72,100,85,64,29.95,29.87,29.80,12,7,0,7,3,,0.00,3,Fog,11
2012-12-27,80,76,72,76,74,72,100,92,81,30.00,29.92,29.86,12,7,0,7,3,,0.02,6,Fog-Rain,302
2012-12-28,85,78,71,77,75,70,100,86,71,29.93,29.88,29.83,12,8,6,9,3,,0.00,4,,136
2012-12-29,85,80,74,77,76,73,95,81,68,30.06,29.97,29.88,14,8,6,9,4,,0.00,2,,78
2012-12-30,85,81,77,77,74,73,94,79,68,30.14,30.08,30.04,12,7,3,15,10,24,1.02,4,Rain,41
2012-12-31,82,77,72,74,72,70,83,73,62,30.11,30.05,29.99,15,8,6,15,12,,0.00,3,Rain,64